sensor_id;sensor_type;location;lat;lon;timestamp;P1;durP1;ratioP1;P2;durP2;ratioP2
45694;SDS011;31408;45.468;9.124;2024-03-29T00:00:24;10.48;;;5.82;;
45694;SDS011;31408;45.468;9.124;2024-03-29T00:02:50;9.40;;;5.38;;
45694;SDS011;31408;45.468;9.124;2024-03-29T00:05:15;11.23;;;5.65;;
45694;SDS011;31408;45.468;9.124;2024-03-29T00:07:40;9.35;;;5.20;;
45694;SDS011;31408;45.468;9.124;2024-03-29T00:10:06;9.20;;;4.85;;
45694;SDS011;31408;45.468;9.124;2024-03-29T00:12:31;8.23;;;5.32;;
45694;SDS011;31408;45.468;9.124;2024-03-29T00:14:56;7.80;;;5.43;;
45694;SDS011;31408;45.468;9.124;2024-03-29T00:17:22;11.07;;;5.40;;
45694;SDS011;31408;45.468;9.124;2024-03-29T00:19:47;10.05;;;5.15;;
45694;SDS011;31408;45.468;9.124;2024-03-29T00:22:13;12.20;;;5.55;;
45694;SDS011;31408;45.468;9.124;2024-03-29T00:24:38;11.52;;;5.82;;
45694;SDS011;31408;45.468;9.124;2024-03-29T00:27:04;10.20;;;5.28;;
45694;SDS011;31408;45.468;9.124;2024-03-29T00:29:29;9.10;;;5.40;;
45694;SDS011;31408;45.468;9.124;2024-03-29T00:31:55;12.50;;;6.72;;
45694;SDS011;31408;45.468;9.124;2024-03-29T00:34:20;14.90;;;6.68;;
45694;SDS011;31408;45.468;9.124;2024-03-29T00:36:45;11.57;;;5.30;;
45694;SDS011;31408;45.468;9.124;2024-03-29T00:39:11;9.43;;;5.15;;
45694;SDS011;31408;45.468;9.124;2024-03-29T00:41:37;10.50;;;5.75;;
45694;SDS011;31408;45.468;9.124;2024-03-29T00:44:02;13.77;;;5.80;;
45694;SDS011;31408;45.468;9.124;2024-03-29T00:46:28;9.35;;;4.82;;
45694;SDS011;31408;45.468;9.124;2024-03-29T00:48:53;8.07;;;5.03;;
45694;SDS011;31408;45.468;9.124;2024-03-29T00:51:18;9.90;;;5.57;;
45694;SDS011;31408;45.468;9.124;2024-03-29T00:53:44;14.93;;;6.32;;
45694;SDS011;31408;45.468;9.124;2024-03-29T00:56:09;11.02;;;6.07;;
45694;SDS011;31408;45.468;9.124;2024-03-29T00:58:34;9.93;;;5.70;;
45694;SDS011;31408;45.468;9.124;2024-03-29T01:01:00;11.13;;;6.10;;
45694;SDS011;31408;45.468;9.124;2024-03-29T01:03:25;9.95;;;6.22;;
45694;SDS011;31408;45.468;9.124;2024-03-29T01:05:53;10.70;;;6.50;;
45694;SDS011;31408;45.468;9.124;2024-03-29T01:08:19;11.85;;;6.70;;
45694;SDS011;31408;45.468;9.124;2024-03-29T01:10:45;12.32;;;5.88;;
45694;SDS011;31408;45.468;9.124;2024-03-29T01:13:10;11.85;;;5.85;;
45694;SDS011;31408;45.468;9.124;2024-03-29T01:15:35;11.23;;;6.45;;
45694;SDS011;31408;45.468;9.124;2024-03-29T01:18:01;11.32;;;6.78;;
45694;SDS011;31408;45.468;9.124;2024-03-29T01:20:26;14.45;;;6.20;;
45694;SDS011;31408;45.468;9.124;2024-03-29T01:22:51;10.40;;;6.55;;
45694;SDS011;31408;45.468;9.124;2024-03-29T01:25:17;11.18;;;5.88;;
45694;SDS011;31408;45.468;9.124;2024-03-29T01:27:43;17.58;;;7.00;;
45694;SDS011;31408;45.468;9.124;2024-03-29T01:30:09;10.43;;;6.30;;
45694;SDS011;31408;45.468;9.124;2024-03-29T01:32:34;12.02;;;7.40;;
45694;SDS011;31408;45.468;9.124;2024-03-29T01:34:59;12.98;;;7.00;;
45694;SDS011;31408;45.468;9.124;2024-03-29T01:37:25;14.02;;;6.68;;
45694;SDS011;31408;45.468;9.124;2024-03-29T01:39:50;13.73;;;7.20;;
45694;SDS011;31408;45.468;9.124;2024-03-29T01:42:16;13.18;;;6.13;;
45694;SDS011;31408;45.468;9.124;2024-03-29T01:44:41;16.08;;;7.50;;
45694;SDS011;31408;45.468;9.124;2024-03-29T01:47:07;13.88;;;7.93;;
45694;SDS011;31408;45.468;9.124;2024-03-29T01:49:32;14.20;;;7.05;;
45694;SDS011;31408;45.468;9.124;2024-03-29T01:51:58;12.75;;;7.35;;
45694;SDS011;31408;45.468;9.124;2024-03-29T01:54:24;14.68;;;7.03;;
45694;SDS011;31408;45.468;9.124;2024-03-29T01:56:49;15.82;;;6.60;;
45694;SDS011;31408;45.468;9.124;2024-03-29T01:59:16;16.00;;;6.93;;
45694;SDS011;31408;45.468;9.124;2024-03-29T02:01:42;13.18;;;7.45;;
45694;SDS011;31408;45.468;9.124;2024-03-29T02:04:08;11.68;;;5.85;;
45694;SDS011;31408;45.468;9.124;2024-03-29T02:06:33;12.95;;;5.88;;
45694;SDS011;31408;45.468;9.124;2024-03-29T02:08:58;10.13;;;5.60;;
45694;SDS011;31408;45.468;9.124;2024-03-29T02:11:24;11.77;;;6.07;;
45694;SDS011;31408;45.468;9.124;2024-03-29T02:13:49;11.10;;;6.18;;
45694;SDS011;31408;45.468;9.124;2024-03-29T02:16:15;14.60;;;6.97;;
45694;SDS011;31408;45.468;9.124;2024-03-29T02:18:41;10.82;;;6.20;;
45694;SDS011;31408;45.468;9.124;2024-03-29T02:21:07;14.18;;;6.70;;
45694;SDS011;31408;45.468;9.124;2024-03-29T02:23:32;10.05;;;4.78;;
45694;SDS011;31408;45.468;9.124;2024-03-29T02:26:00;11.27;;;6.00;;
45694;SDS011;31408;45.468;9.124;2024-03-29T02:28:26;10.93;;;6.57;;
45694;SDS011;31408;45.468;9.124;2024-03-29T02:30:51;10.95;;;5.63;;
45694;SDS011;31408;45.468;9.124;2024-03-29T02:33:17;11.25;;;6.03;;
45694;SDS011;31408;45.468;9.124;2024-03-29T02:35:42;8.57;;;5.18;;
45694;SDS011;31408;45.468;9.124;2024-03-29T02:38:07;10.10;;;5.95;;
45694;SDS011;31408;45.468;9.124;2024-03-29T02:40:33;13.85;;;5.88;;
45694;SDS011;31408;45.468;9.124;2024-03-29T02:42:58;12.15;;;7.30;;
45694;SDS011;31408;45.468;9.124;2024-03-29T02:45:23;9.90;;;6.15;;
45694;SDS011;31408;45.468;9.124;2024-03-29T02:47:49;10.35;;;5.75;;
45694;SDS011;31408;45.468;9.124;2024-03-29T02:50:16;9.40;;;5.93;;
45694;SDS011;31408;45.468;9.124;2024-03-29T02:52:41;10.77;;;6.57;;
45694;SDS011;31408;45.468;9.124;2024-03-29T02:55:07;11.05;;;5.13;;
45694;SDS011;31408;45.468;9.124;2024-03-29T02:57:33;14.30;;;6.35;;
45694;SDS011;31408;45.468;9.124;2024-03-29T02:59:58;11.88;;;6.68;;
45694;SDS011;31408;45.468;9.124;2024-03-29T03:02:24;11.02;;;6.32;;
45694;SDS011;31408;45.468;9.124;2024-03-29T03:04:49;10.90;;;5.38;;
45694;SDS011;31408;45.468;9.124;2024-03-29T03:07:14;13.65;;;6.38;;
45694;SDS011;31408;45.468;9.124;2024-03-29T03:09:58;9.30;;;6.00;;
45694;SDS011;31408;45.468;9.124;2024-03-29T03:12:43;7.75;;;5.30;;
45694;SDS011;31408;45.468;9.124;2024-03-29T03:15:08;10.18;;;6.20;;
45694;SDS011;31408;45.468;9.124;2024-03-29T03:17:33;9.65;;;5.80;;
45694;SDS011;31408;45.468;9.124;2024-03-29T03:19:59;12.27;;;6.30;;
45694;SDS011;31408;45.468;9.124;2024-03-29T03:22:24;12.52;;;6.65;;
45694;SDS011;31408;45.468;9.124;2024-03-29T03:24:50;7.93;;;4.68;;
45694;SDS011;31408;45.468;9.124;2024-03-29T03:27:15;7.32;;;4.35;;
45694;SDS011;31408;45.468;9.124;2024-03-29T03:29:40;7.63;;;5.00;;
45694;SDS011;31408;45.468;9.124;2024-03-29T03:32:06;10.15;;;5.68;;
45694;SDS011;31408;45.468;9.124;2024-03-29T03:34:32;6.78;;;4.93;;
45694;SDS011;31408;45.468;9.124;2024-03-29T03:36:57;10.93;;;5.43;;
45694;SDS011;31408;45.468;9.124;2024-03-29T03:39:22;8.95;;;5.00;;
45694;SDS011;31408;45.468;9.124;2024-03-29T03:41:48;9.95;;;4.45;;
45694;SDS011;31408;45.468;9.124;2024-03-29T03:44:14;8.75;;;5.47;;
45694;SDS011;31408;45.468;9.124;2024-03-29T03:46:39;7.85;;;4.97;;
45694;SDS011;31408;45.468;9.124;2024-03-29T03:49:04;9.48;;;5.78;;
45694;SDS011;31408;45.468;9.124;2024-03-29T03:51:30;9.40;;;5.40;;
45694;SDS011;31408;45.468;9.124;2024-03-29T03:53:56;9.88;;;5.65;;
45694;SDS011;31408;45.468;9.124;2024-03-29T03:56:21;8.13;;;4.43;;
45694;SDS011;31408;45.468;9.124;2024-03-29T03:58:46;11.43;;;5.70;;
45694;SDS011;31408;45.468;9.124;2024-03-29T04:01:12;9.57;;;5.13;;
45694;SDS011;31408;45.468;9.124;2024-03-29T04:03:37;12.63;;;5.68;;
45694;SDS011;31408;45.468;9.124;2024-03-29T04:06:04;13.57;;;5.50;;
45694;SDS011;31408;45.468;9.124;2024-03-29T04:08:30;8.10;;;5.30;;
45694;SDS011;31408;45.468;9.124;2024-03-29T04:10:55;6.63;;;4.43;;
45694;SDS011;31408;45.468;9.124;2024-03-29T04:13:21;9.02;;;5.18;;
45694;SDS011;31408;45.468;9.124;2024-03-29T04:15:47;8.82;;;5.28;;
45694;SDS011;31408;45.468;9.124;2024-03-29T04:18:12;6.18;;;4.15;;
45694;SDS011;31408;45.468;9.124;2024-03-29T04:20:37;10.77;;;5.57;;
45694;SDS011;31408;45.468;9.124;2024-03-29T04:23:06;7.95;;;4.28;;
45694;SDS011;31408;45.468;9.124;2024-03-29T04:25:32;8.45;;;5.30;;
45694;SDS011;31408;45.468;9.124;2024-03-29T04:27:58;9.90;;;5.20;;
45694;SDS011;31408;45.468;9.124;2024-03-29T04:30:23;12.07;;;6.35;;
45694;SDS011;31408;45.468;9.124;2024-03-29T04:32:49;11.32;;;4.90;;
45694;SDS011;31408;45.468;9.124;2024-03-29T04:35:14;8.55;;;4.68;;
45694;SDS011;31408;45.468;9.124;2024-03-29T04:37:39;7.10;;;4.50;;
45694;SDS011;31408;45.468;9.124;2024-03-29T04:40:05;9.52;;;4.75;;
45694;SDS011;31408;45.468;9.124;2024-03-29T04:42:31;9.68;;;5.50;;
45694;SDS011;31408;45.468;9.124;2024-03-29T04:44:56;6.57;;;4.03;;
45694;SDS011;31408;45.468;9.124;2024-03-29T04:47:22;11.57;;;5.68;;
45694;SDS011;31408;45.468;9.124;2024-03-29T04:49:47;7.68;;;5.00;;
45694;SDS011;31408;45.468;9.124;2024-03-29T04:52:12;11.00;;;5.78;;
45694;SDS011;31408;45.468;9.124;2024-03-29T04:54:38;9.80;;;4.38;;
45694;SDS011;31408;45.468;9.124;2024-03-29T04:57:04;7.55;;;4.95;;
45694;SDS011;31408;45.468;9.124;2024-03-29T04:59:31;6.15;;;4.78;;
45694;SDS011;31408;45.468;9.124;2024-03-29T05:01:58;9.32;;;5.43;;
45694;SDS011;31408;45.468;9.124;2024-03-29T05:04:23;9.65;;;4.55;;
45694;SDS011;31408;45.468;9.124;2024-03-29T05:06:55;10.27;;;5.15;;
45694;SDS011;31408;45.468;9.124;2024-03-29T05:09:21;7.65;;;4.75;;
45694;SDS011;31408;45.468;9.124;2024-03-29T05:11:46;9.18;;;5.68;;
45694;SDS011;31408;45.468;9.124;2024-03-29T05:14:15;9.25;;;4.72;;
45694;SDS011;31408;45.468;9.124;2024-03-29T05:16:44;13.30;;;5.32;;
45694;SDS011;31408;45.468;9.124;2024-03-29T05:19:10;7.95;;;5.25;;
45694;SDS011;31408;45.468;9.124;2024-03-29T05:21:36;7.90;;;4.75;;
45694;SDS011;31408;45.468;9.124;2024-03-29T05:24:01;8.27;;;4.72;;
45694;SDS011;31408;45.468;9.124;2024-03-29T05:26:26;11.23;;;5.32;;
45694;SDS011;31408;45.468;9.124;2024-03-29T05:28:52;13.10;;;5.30;;
45694;SDS011;31408;45.468;9.124;2024-03-29T05:31:19;12.18;;;4.75;;
45694;SDS011;31408;45.468;9.124;2024-03-29T05:33:44;7.45;;;4.57;;
45694;SDS011;31408;45.468;9.124;2024-03-29T05:36:10;7.72;;;4.75;;
45694;SDS011;31408;45.468;9.124;2024-03-29T05:38:38;10.50;;;5.40;;
45694;SDS011;31408;45.468;9.124;2024-03-29T05:41:03;11.13;;;4.85;;
45694;SDS011;31408;45.468;9.124;2024-03-29T05:43:29;6.82;;;4.55;;
45694;SDS011;31408;45.468;9.124;2024-03-29T05:45:54;8.63;;;4.63;;
45694;SDS011;31408;45.468;9.124;2024-03-29T05:48:20;8.38;;;5.20;;
45694;SDS011;31408;45.468;9.124;2024-03-29T05:50:45;9.50;;;5.07;;
45694;SDS011;31408;45.468;9.124;2024-03-29T05:53:11;7.65;;;4.80;;
45694;SDS011;31408;45.468;9.124;2024-03-29T05:55:36;8.82;;;5.13;;
45694;SDS011;31408;45.468;9.124;2024-03-29T05:58:01;9.93;;;5.32;;
45694;SDS011;31408;45.468;9.124;2024-03-29T06:00:28;9.68;;;5.20;;
45694;SDS011;31408;45.468;9.124;2024-03-29T06:02:54;12.07;;;6.82;;
45694;SDS011;31408;45.468;9.124;2024-03-29T06:05:19;10.23;;;6.32;;
45694;SDS011;31408;45.468;9.124;2024-03-29T06:07:45;9.23;;;5.55;;
45694;SDS011;31408;45.468;9.124;2024-03-29T06:10:10;9.68;;;4.97;;
45694;SDS011;31408;45.468;9.124;2024-03-29T06:12:36;12.82;;;6.68;;
45694;SDS011;31408;45.468;9.124;2024-03-29T06:15:04;17.50;;;8.60;;
45694;SDS011;31408;45.468;9.124;2024-03-29T06:17:47;13.90;;;7.32;;
45694;SDS011;31408;45.468;9.124;2024-03-29T06:20:13;19.83;;;9.35;;
45694;SDS011;31408;45.468;9.124;2024-03-29T06:22:38;16.42;;;9.77;;
45694;SDS011;31408;45.468;9.124;2024-03-29T06:25:04;24.55;;;13.30;;
45694;SDS011;31408;45.468;9.124;2024-03-29T06:27:32;23.85;;;11.57;;
45694;SDS011;31408;45.468;9.124;2024-03-29T06:29:58;16.42;;;9.35;;
45694;SDS011;31408;45.468;9.124;2024-03-29T06:32:23;23.30;;;11.55;;
45694;SDS011;31408;45.468;9.124;2024-03-29T06:34:49;16.70;;;9.60;;
45694;SDS011;31408;45.468;9.124;2024-03-29T06:37:14;18.83;;;10.60;;
45694;SDS011;31408;45.468;9.124;2024-03-29T06:39:40;18.35;;;10.02;;
45694;SDS011;31408;45.468;9.124;2024-03-29T06:42:07;21.27;;;10.65;;
45694;SDS011;31408;45.468;9.124;2024-03-29T06:44:33;21.42;;;11.98;;
45694;SDS011;31408;45.468;9.124;2024-03-29T06:46:58;20.20;;;10.88;;
45694;SDS011;31408;45.468;9.124;2024-03-29T06:49:24;19.60;;;11.50;;
45694;SDS011;31408;45.468;9.124;2024-03-29T06:51:49;23.25;;;10.07;;
45694;SDS011;31408;45.468;9.124;2024-03-29T06:54:14;19.08;;;11.05;;
45694;SDS011;31408;45.468;9.124;2024-03-29T06:56:40;21.63;;;10.93;;
45694;SDS011;31408;45.468;9.124;2024-03-29T06:59:05;19.27;;;11.23;;
45694;SDS011;31408;45.468;9.124;2024-03-29T07:01:30;19.80;;;10.57;;
45694;SDS011;31408;45.468;9.124;2024-03-29T07:03:56;18.77;;;11.10;;
45694;SDS011;31408;45.468;9.124;2024-03-29T07:06:21;17.83;;;10.85;;
45694;SDS011;31408;45.468;9.124;2024-03-29T07:08:47;28.60;;;14.63;;
45694;SDS011;31408;45.468;9.124;2024-03-29T07:11:12;26.20;;;14.55;;
45694;SDS011;31408;45.468;9.124;2024-03-29T07:13:38;22.42;;;12.52;;
45694;SDS011;31408;45.468;9.124;2024-03-29T07:16:03;23.27;;;13.05;;
45694;SDS011;31408;45.468;9.124;2024-03-29T07:18:29;24.58;;;13.10;;
45694;SDS011;31408;45.468;9.124;2024-03-29T07:20:54;27.80;;;13.80;;
45694;SDS011;31408;45.468;9.124;2024-03-29T07:23:20;26.40;;;14.25;;
45694;SDS011;31408;45.468;9.124;2024-03-29T07:25:46;26.38;;;14.90;;
45694;SDS011;31408;45.468;9.124;2024-03-29T07:28:21;28.63;;;15.27;;
45694;SDS011;31408;45.468;9.124;2024-03-29T07:30:47;32.70;;;16.42;;
45694;SDS011;31408;45.468;9.124;2024-03-29T07:33:12;30.77;;;16.50;;
45694;SDS011;31408;45.468;9.124;2024-03-29T07:35:40;31.15;;;17.08;;
45694;SDS011;31408;45.468;9.124;2024-03-29T07:38:06;28.05;;;16.40;;
45694;SDS011;31408;45.468;9.124;2024-03-29T07:40:32;27.75;;;15.55;;
45694;SDS011;31408;45.468;9.124;2024-03-29T07:42:57;32.95;;;17.40;;
45694;SDS011;31408;45.468;9.124;2024-03-29T07:45:22;30.85;;;17.35;;
45694;SDS011;31408;45.468;9.124;2024-03-29T07:47:48;30.80;;;16.30;;
45694;SDS011;31408;45.468;9.124;2024-03-29T07:50:18;31.88;;;16.30;;
45694;SDS011;31408;45.468;9.124;2024-03-29T07:52:44;31.15;;;16.77;;
45694;SDS011;31408;45.468;9.124;2024-03-29T07:55:10;32.05;;;18.58;;
45694;SDS011;31408;45.468;9.124;2024-03-29T07:57:35;30.58;;;17.55;;
45694;SDS011;31408;45.468;9.124;2024-03-29T08:00:01;32.83;;;17.27;;
45694;SDS011;31408;45.468;9.124;2024-03-29T08:02:31;34.75;;;19.25;;
45694;SDS011;31408;45.468;9.124;2024-03-29T08:04:57;28.65;;;16.15;;
45694;SDS011;31408;45.468;9.124;2024-03-29T08:07:22;31.98;;;19.98;;
45694;SDS011;31408;45.468;9.124;2024-03-29T08:09:48;31.23;;;17.95;;
45694;SDS011;31408;45.468;9.124;2024-03-29T08:12:14;28.98;;;16.42;;
45694;SDS011;31408;45.468;9.124;2024-03-29T08:14:40;29.17;;;16.38;;
45694;SDS011;31408;45.468;9.124;2024-03-29T08:17:05;30.35;;;16.95;;
45694;SDS011;31408;45.468;9.124;2024-03-29T08:19:34;28.40;;;14.88;;
45694;SDS011;31408;45.468;9.124;2024-03-29T08:22:00;30.23;;;17.05;;
45694;SDS011;31408;45.468;9.124;2024-03-29T08:24:26;27.15;;;16.50;;
45694;SDS011;31408;45.468;9.124;2024-03-29T08:26:53;30.92;;;17.23;;
45694;SDS011;31408;45.468;9.124;2024-03-29T08:29:18;35.65;;;19.40;;
45694;SDS011;31408;45.468;9.124;2024-03-29T08:31:43;28.10;;;15.05;;
45694;SDS011;31408;45.468;9.124;2024-03-29T08:34:09;27.27;;;16.73;;
45694;SDS011;31408;45.468;9.124;2024-03-29T08:36:38;31.33;;;16.88;;
45694;SDS011;31408;45.468;9.124;2024-03-29T08:39:03;30.77;;;16.58;;
45694;SDS011;31408;45.468;9.124;2024-03-29T08:41:29;27.70;;;15.95;;
45694;SDS011;31408;45.468;9.124;2024-03-29T08:43:54;28.23;;;15.35;;
45694;SDS011;31408;45.468;9.124;2024-03-29T08:46:20;29.35;;;14.60;;
45694;SDS011;31408;45.468;9.124;2024-03-29T08:48:45;25.63;;;14.25;;
45694;SDS011;31408;45.468;9.124;2024-03-29T08:51:10;25.40;;;14.63;;
45694;SDS011;31408;45.468;9.124;2024-03-29T08:53:36;27.45;;;15.23;;
45694;SDS011;31408;45.468;9.124;2024-03-29T08:56:01;27.38;;;14.63;;
45694;SDS011;31408;45.468;9.124;2024-03-29T08:58:26;31.00;;;14.38;;
45694;SDS011;31408;45.468;9.124;2024-03-29T09:00:55;31.52;;;16.73;;
45694;SDS011;31408;45.468;9.124;2024-03-29T09:03:21;29.27;;;14.05;;
45694;SDS011;31408;45.468;9.124;2024-03-29T09:05:46;24.65;;;13.93;;
45694;SDS011;31408;45.468;9.124;2024-03-29T09:08:12;26.85;;;14.02;;
45694;SDS011;31408;45.468;9.124;2024-03-29T09:10:37;26.08;;;14.45;;
45694;SDS011;31408;45.468;9.124;2024-03-29T09:13:02;28.92;;;16.17;;
45694;SDS011;31408;45.468;9.124;2024-03-29T09:15:28;25.23;;;13.27;;
45694;SDS011;31408;45.468;9.124;2024-03-29T09:17:53;26.85;;;14.57;;
45694;SDS011;31408;45.468;9.124;2024-03-29T09:20:20;26.67;;;14.60;;
45694;SDS011;31408;45.468;9.124;2024-03-29T09:22:45;28.25;;;13.35;;
45694;SDS011;31408;45.468;9.124;2024-03-29T09:25:11;25.20;;;14.02;;
45694;SDS011;31408;45.468;9.124;2024-03-29T09:27:39;24.38;;;13.57;;
45694;SDS011;31408;45.468;9.124;2024-03-29T09:30:07;25.55;;;14.05;;
45694;SDS011;31408;45.468;9.124;2024-03-29T09:32:35;23.13;;;13.88;;
45694;SDS011;31408;45.468;9.124;2024-03-29T09:35:00;25.50;;;13.75;;
45694;SDS011;31408;45.468;9.124;2024-03-29T09:37:26;24.23;;;13.85;;
45694;SDS011;31408;45.468;9.124;2024-03-29T09:39:51;24.92;;;12.40;;
45694;SDS011;31408;45.468;9.124;2024-03-29T09:42:17;29.75;;;14.77;;
45694;SDS011;31408;45.468;9.124;2024-03-29T09:44:43;27.23;;;14.65;;
45694;SDS011;31408;45.468;9.124;2024-03-29T09:47:08;28.95;;;15.77;;
45694;SDS011;31408;45.468;9.124;2024-03-29T09:49:36;26.83;;;14.80;;
45694;SDS011;31408;45.468;9.124;2024-03-29T09:52:02;28.80;;;14.95;;
45694;SDS011;31408;45.468;9.124;2024-03-29T09:54:28;27.55;;;14.32;;
45694;SDS011;31408;45.468;9.124;2024-03-29T09:56:54;28.50;;;14.48;;
45694;SDS011;31408;45.468;9.124;2024-03-29T09:59:20;32.67;;;15.65;;
45694;SDS011;31408;45.468;9.124;2024-03-29T10:01:45;29.35;;;16.13;;
45694;SDS011;31408;45.468;9.124;2024-03-29T10:04:11;24.13;;;14.52;;
45694;SDS011;31408;45.468;9.124;2024-03-29T10:06:38;28.38;;;15.70;;
45694;SDS011;31408;45.468;9.124;2024-03-29T10:09:04;33.78;;;16.52;;
45694;SDS011;31408;45.468;9.124;2024-03-29T10:11:30;28.30;;;14.73;;
45694;SDS011;31408;45.468;9.124;2024-03-29T10:13:55;27.20;;;15.98;;
45694;SDS011;31408;45.468;9.124;2024-03-29T10:16:21;31.13;;;16.35;;
45694;SDS011;31408;45.468;9.124;2024-03-29T10:18:47;26.77;;;14.93;;
45694;SDS011;31408;45.468;9.124;2024-03-29T10:21:12;28.90;;;16.77;;
45694;SDS011;31408;45.468;9.124;2024-03-29T10:23:38;28.33;;;13.55;;
45694;SDS011;31408;45.468;9.124;2024-03-29T10:26:05;27.35;;;13.90;;
45694;SDS011;31408;45.468;9.124;2024-03-29T10:28:34;25.98;;;14.32;;
45694;SDS011;31408;45.468;9.124;2024-03-29T10:31:04;25.23;;;14.30;;
45694;SDS011;31408;45.468;9.124;2024-03-29T10:33:30;29.48;;;15.18;;
45694;SDS011;31408;45.468;9.124;2024-03-29T10:35:56;27.65;;;13.80;;
45694;SDS011;31408;45.468;9.124;2024-03-29T10:38:22;31.15;;;15.40;;
45694;SDS011;31408;45.468;9.124;2024-03-29T10:40:47;30.10;;;16.77;;
45694;SDS011;31408;45.468;9.124;2024-03-29T10:43:13;27.00;;;15.35;;
45694;SDS011;31408;45.468;9.124;2024-03-29T10:45:41;28.10;;;15.43;;
45694;SDS011;31408;45.468;9.124;2024-03-29T10:48:08;26.63;;;14.48;;
45694;SDS011;31408;45.468;9.124;2024-03-29T10:50:37;29.60;;;14.15;;
45694;SDS011;31408;45.468;9.124;2024-03-29T10:53:05;28.08;;;14.73;;
45694;SDS011;31408;45.468;9.124;2024-03-29T10:55:30;24.67;;;13.43;;
45694;SDS011;31408;45.468;9.124;2024-03-29T10:57:57;27.08;;;15.30;;
45694;SDS011;31408;45.468;9.124;2024-03-29T11:00:24;28.00;;;15.85;;
45694;SDS011;31408;45.468;9.124;2024-03-29T11:02:51;30.85;;;13.32;;
45694;SDS011;31408;45.468;9.124;2024-03-29T11:05:21;30.13;;;13.20;;
45694;SDS011;31408;45.468;9.124;2024-03-29T11:07:46;25.52;;;13.32;;
45694;SDS011;31408;45.468;9.124;2024-03-29T11:13:31;37.78;;;19.63;;
45694;SDS011;31408;45.468;9.124;2024-03-29T11:15:59;35.42;;;18.90;;
45694;SDS011;31408;45.468;9.124;2024-03-29T11:18:25;29.27;;;17.25;;
45694;SDS011;31408;45.468;9.124;2024-03-29T11:20:52;30.67;;;17.02;;
45694;SDS011;31408;45.468;9.124;2024-03-29T11:23:18;30.00;;;15.10;;
45694;SDS011;31408;45.468;9.124;2024-03-29T11:25:44;25.73;;;14.93;;
45694;SDS011;31408;45.468;9.124;2024-03-29T11:28:14;26.67;;;13.27;;
45694;SDS011;31408;45.468;9.124;2024-03-29T11:30:44;25.13;;;12.77;;
45694;SDS011;31408;45.468;9.124;2024-03-29T11:35:51;22.40;;;11.70;;
45694;SDS011;31408;45.468;9.124;2024-03-29T11:38:19;20.02;;;11.27;;
45694;SDS011;31408;45.468;9.124;2024-03-29T11:43:40;23.33;;;12.32;;
45694;SDS011;31408;45.468;9.124;2024-03-29T11:46:07;25.38;;;12.73;;
45694;SDS011;31408;45.468;9.124;2024-03-29T11:48:33;21.52;;;12.43;;
45694;SDS011;31408;45.468;9.124;2024-03-29T11:50:59;25.77;;;13.00;;
45694;SDS011;31408;45.468;9.124;2024-03-29T11:53:25;27.45;;;13.95;;
45694;SDS011;31408;45.468;9.124;2024-03-29T11:55:52;21.23;;;11.30;;
45694;SDS011;31408;45.468;9.124;2024-03-29T11:58:24;25.08;;;12.50;;
45694;SDS011;31408;45.468;9.124;2024-03-29T12:00:50;28.02;;;14.05;;
45694;SDS011;31408;45.468;9.124;2024-03-29T12:03:16;24.88;;;13.10;;
45694;SDS011;31408;45.468;9.124;2024-03-29T12:05:42;25.15;;;11.68;;
45694;SDS011;31408;45.468;9.124;2024-03-29T12:08:07;26.42;;;10.77;;
45694;SDS011;31408;45.468;9.124;2024-03-29T12:10:34;23.58;;;11.60;;
45694;SDS011;31408;45.468;9.124;2024-03-29T12:13:00;20.95;;;11.85;;
45694;SDS011;31408;45.468;9.124;2024-03-29T12:15:29;22.75;;;12.05;;
45694;SDS011;31408;45.468;9.124;2024-03-29T12:17:57;23.70;;;12.38;;
45694;SDS011;31408;45.468;9.124;2024-03-29T12:20:23;21.17;;;12.57;;
45694;SDS011;31408;45.468;9.124;2024-03-29T12:22:48;34.72;;;14.57;;
45694;SDS011;31408;45.468;9.124;2024-03-29T12:25:14;29.98;;;13.32;;
45694;SDS011;31408;45.468;9.124;2024-03-29T12:27:42;28.65;;;11.88;;
45694;SDS011;31408;45.468;9.124;2024-03-29T12:30:07;27.25;;;13.30;;
45694;SDS011;31408;45.468;9.124;2024-03-29T12:32:33;22.80;;;10.90;;
45694;SDS011;31408;45.468;9.124;2024-03-29T12:35:09;26.25;;;13.23;;
45694;SDS011;31408;45.468;9.124;2024-03-29T12:37:35;26.05;;;12.68;;
45694;SDS011;31408;45.468;9.124;2024-03-29T12:40:01;22.40;;;12.23;;
45694;SDS011;31408;45.468;9.124;2024-03-29T12:42:36;21.75;;;11.30;;
45694;SDS011;31408;45.468;9.124;2024-03-29T12:45:02;27.65;;;14.63;;
45694;SDS011;31408;45.468;9.124;2024-03-29T12:47:28;25.05;;;13.20;;
45694;SDS011;31408;45.468;9.124;2024-03-29T12:49:54;22.02;;;11.50;;
45694;SDS011;31408;45.468;9.124;2024-03-29T12:52:20;27.48;;;12.35;;
45694;SDS011;31408;45.468;9.124;2024-03-29T12:54:46;22.05;;;12.25;;
45694;SDS011;31408;45.468;9.124;2024-03-29T12:57:11;21.58;;;11.20;;
45694;SDS011;31408;45.468;9.124;2024-03-29T12:59:36;21.65;;;12.00;;
45694;SDS011;31408;45.468;9.124;2024-03-29T13:02:02;25.33;;;12.40;;
45694;SDS011;31408;45.468;9.124;2024-03-29T13:04:29;22.50;;;12.88;;
45694;SDS011;31408;45.468;9.124;2024-03-29T13:06:55;28.15;;;12.98;;
45694;SDS011;31408;45.468;9.124;2024-03-29T13:09:20;22.73;;;12.13;;
45694;SDS011;31408;45.468;9.124;2024-03-29T13:11:46;24.92;;;11.52;;
45694;SDS011;31408;45.468;9.124;2024-03-29T13:14:11;27.45;;;11.90;;
45694;SDS011;31408;45.468;9.124;2024-03-29T13:16:36;23.63;;;11.65;;
45694;SDS011;31408;45.468;9.124;2024-03-29T13:19:02;24.33;;;11.93;;
45694;SDS011;31408;45.468;9.124;2024-03-29T13:21:28;20.98;;;11.32;;
45694;SDS011;31408;45.468;9.124;2024-03-29T13:23:53;17.33;;;9.48;;
45694;SDS011;31408;45.468;9.124;2024-03-29T13:26:19;21.45;;;11.80;;
45694;SDS011;31408;45.468;9.124;2024-03-29T13:28:44;25.05;;;11.73;;
45694;SDS011;31408;45.468;9.124;2024-03-29T13:31:10;24.98;;;12.52;;
45694;SDS011;31408;45.468;9.124;2024-03-29T13:33:35;47.25;;;15.75;;
45694;SDS011;31408;45.468;9.124;2024-03-29T13:36:01;41.88;;;16.67;;
45694;SDS011;31408;45.468;9.124;2024-03-29T13:38:27;28.63;;;14.07;;
45694;SDS011;31408;45.468;9.124;2024-03-29T13:40:52;25.75;;;13.43;;
45694;SDS011;31408;45.468;9.124;2024-03-29T13:43:18;21.55;;;10.45;;
45694;SDS011;31408;45.468;9.124;2024-03-29T13:45:43;16.58;;;8.48;;
45694;SDS011;31408;45.468;9.124;2024-03-29T13:48:09;17.92;;;9.40;;
45694;SDS011;31408;45.468;9.124;2024-03-29T13:50:34;23.80;;;11.38;;
45694;SDS011;31408;45.468;9.124;2024-03-29T13:52:59;23.60;;;9.25;;
45694;SDS011;31408;45.468;9.124;2024-03-29T13:55:25;17.02;;;8.13;;
45694;SDS011;31408;45.468;9.124;2024-03-29T13:57:55;13.73;;;7.03;;
45694;SDS011;31408;45.468;9.124;2024-03-29T14:00:20;15.98;;;8.23;;
45694;SDS011;31408;45.468;9.124;2024-03-29T14:02:46;19.08;;;10.05;;
45694;SDS011;31408;45.468;9.124;2024-03-29T14:05:11;18.50;;;8.15;;
45694;SDS011;31408;45.468;9.124;2024-03-29T14:07:37;15.07;;;8.05;;
45694;SDS011;31408;45.468;9.124;2024-03-29T14:10:03;37.33;;;9.90;;
45694;SDS011;31408;45.468;9.124;2024-03-29T14:12:31;20.38;;;6.80;;
45694;SDS011;31408;45.468;9.124;2024-03-29T14:14:56;12.20;;;7.15;;
45694;SDS011;31408;45.468;9.124;2024-03-29T14:17:22;12.50;;;6.43;;
45694;SDS011;31408;45.468;9.124;2024-03-29T14:19:47;14.32;;;6.97;;
45694;SDS011;31408;45.468;9.124;2024-03-29T14:22:14;15.05;;;7.07;;
45694;SDS011;31408;45.468;9.124;2024-03-29T14:24:41;12.35;;;6.13;;
45694;SDS011;31408;45.468;9.124;2024-03-29T14:27:07;13.25;;;6.18;;
45694;SDS011;31408;45.468;9.124;2024-03-29T14:29:32;11.48;;;6.15;;
45694;SDS011;31408;45.468;9.124;2024-03-29T14:31:58;11.60;;;6.25;;